Time;durP1;ratioP1;P1;durP2;ratioP2;P2;SDS_P1;SDS_P2;PMS_P1;PMS_P2;Temp;Humidity;BMP_temperature;BMP_pressure;BME280_temperature;BME280_humidity;BME280_pressure;Samples;Min_cycle;Max_cycle;Signal;HPM_P1;HPM_P2
2022/11/15 00:01:55;;;;;;;90.03;48.63;;;-0.80;99.90;;;;;;8279727;28;20183;-68
2022/11/15 00:06:01;;;;;;;57.70;31.97;;;-0.80;99.90;;;;;;8277762;28;20183;-68
2022/11/15 00:10:03;;;;;;;58.57;32.97;;;-0.90;99.90;;;;;;8279418;28;20262;-68
2022/11/15 00:14:04;;;;;;;61.30;31.83;;;-0.90;99.90;;;;;;8277538;28;20209;-68
2022/11/15 00:18:06;;;;;;;50.57;26.13;;;-1.00;99.90;;;;;;8279397;28;20223;-68
2022/11/15 00:22:06;;;;;;;42.33;24.07;;;-1.10;99.90;;;;;;8312195;28;20184;-68
2022/11/15 00:26:11;;;;;;;44.80;24.60;;;-1.10;99.90;;;;;;8281307;28;20247;-68
2022/11/15 00:30:12;;;;;;;52.67;26.20;;;-1.10;99.90;;;;;;8281508;28;20205;-67
2022/11/15 00:34:13;;;;;;;54.97;30.73;;;-1.10;99.90;;;;;;8282734;28;20202;-68
2022/11/15 00:38:14;;;;;;;55.27;31.57;;;-1.10;99.90;;;;;;8313125;28;20215;-68
2022/11/15 00:42:15;;;;;;;53.17;29.33;;;-1.10;99.90;;;;;;8282111;28;20555;-67
2022/11/15 00:46:16;;;;;;;59.77;31.50;;;-1.10;99.90;;;;;;8283616;28;20270;-68
2022/11/15 00:50:17;;;;;;;55.53;30.70;;;-1.10;99.90;;;;;;8287016;28;20187;-68
2022/11/15 00:54:18;;;;;;;67.10;35.03;;;-1.10;99.90;;;;;;8284523;28;20204;-67
2022/11/15 00:58:19;;;;;;;73.47;39.17;;;-1.10;99.90;;;;;;8285812;28;20229;-68
2022/11/15 01:02:19;;;;;;;63.97;34.07;;;-1.10;99.90;;;;;;8284704;28;20273;-67
2022/11/15 01:06:20;;;;;;;56.73;31.63;;;-1.10;99.90;;;;;;8285098;28;20187;-68
2022/11/15 01:10:22;;;;;;;54.90;28.83;;;-1.10;99.90;;;;;;8317780;28;20188;-67
2022/11/15 01:14:23;;;;;;;51.53;25.70;;;-1.00;99.90;;;;;;8316802;28;20195;-67
2022/11/15 01:18:23;;;;;;;47.03;25.63;;;-1.10;99.90;;;;;;8277811;28;20218;-68
2022/11/15 01:22:24;;;;;;;54.57;27.97;;;-1.20;99.90;;;;;;8288124;28;20187;-68
2022/11/15 01:26:25;;;;;;;50.57;27.83;;;-1.20;99.90;;;;;;8285035;28;20196;-68
2022/11/15 01:30:26;;;;;;;48.27;27.07;;;-1.20;99.90;;;;;;8282973;28;20198;-67
2022/11/15 01:34:26;;;;;;;63.20;34.60;;;-1.20;99.90;;;;;;8283169;28;20185;-68
2022/11/15 01:38:27;;;;;;;60.83;33.73;;;-1.20;99.90;;;;;;8283874;28;20229;-68
2022/11/15 01:42:28;;;;;;;57.07;32.07;;;-1.20;99.90;;;;;;8286262;28;20186;-67
2022/11/15 01:46:37;;;;;;;49.90;27.80;;;-1.20;99.90;;;;;;8284968;28;20191;-67
2022/11/15 01:50:38;;;;;;;55.03;29.50;;;-1.30;99.90;;;;;;8286200;28;20490;-67
2022/11/15 01:54:39;;;;;;;73.33;39.53;;;-1.20;99.90;;;;;;8286773;28;20273;-67
2022/11/15 01:58:41;;;;;;;69.50;35.03;;;-1.20;99.90;;;;;;8284683;28;20229;-66
2022/11/15 02:02:42;;;;;;;61.33;32.30;;;-1.10;99.90;;;;;;8285495;28;20202;-67
2022/11/15 02:06:44;;;;;;;56.63;28.67;;;-1.10;99.90;;;;;;8285196;28;21036;-68
2022/11/15 02:10:44;;;;;;;60.50;33.03;;;-1.20;99.90;;;;;;8284522;28;20191;-66
2022/11/15 02:14:50;;;;;;;62.87;33.37;;;-1.10;99.90;;;;;;8285403;28;20189;-66
2022/11/15 02:19:35;;;;;;;54.77;31.57;;;-1.00;99.90;;;;;;8285881;28;20207;-67
2022/11/15 02:23:51;;;;;;;51.03;27.83;;;-1.00;99.90;;;;;;8283603;28;20202;-67
2022/11/15 02:27:57;;;;;;;49.17;27.87;;;-1.10;99.90;;;;;;8317703;28;20225;-66
2022/11/15 02:32:16;;;;;;;46.57;26.57;;;-1.10;99.90;;;;;;8282410;28;20189;-67
2022/11/15 02:36:49;;;;;;;48.27;25.67;;;-1.20;99.90;;;;;;8285396;28;20203;-67
2022/11/15 02:41:09;;;;;;;49.43;26.53;;;-1.20;99.90;;;;;;8316843;28;20304;-66
2022/11/15 02:45:14;;;;;;;43.37;25.23;;;-1.20;99.90;;;;;;8284658;28;20213;-67
2022/11/15 02:49:15;;;;;;;46.00;25.93;;;-1.30;99.90;;;;;;8284538;28;20189;-67
2022/11/15 02:53:16;;;;;;;51.30;27.80;;;-1.20;99.90;;;;;;8298996;28;20202;-66
2022/11/15 02:57:23;;;;;;;52.77;29.77;;;-1.10;99.90;;;;;;8284845;28;20213;-67
2022/11/15 03:01:56;;;;;;;69.97;37.93;;;-1.10;99.90;;;;;;8284896;28;20198;-68
2022/11/15 03:06:21;;;;;;;53.40;28.70;;;-1.00;99.90;;;;;;8290399;28;20191;-67
2022/11/15 03:10:32;;;;;;;56.03;30.50;;;-1.00;99.90;;;;;;8280958;28;20186;-65
2022/11/15 03:14:37;;;;;;;54.00;29.83;;;-1.10;99.90;;;;;;8282986;28;20304;-67
2022/11/15 03:18:43;;;;;;;52.47;28.87;;;-1.10;99.90;;;;;;8314084;28;20224;-67
2022/11/15 03:22:47;;;;;;;46.03;26.13;;;-1.20;99.90;;;;;;8298414;28;20513;-67
2022/11/15 03:26:49;;;;;;;47.17;25.97;;;-1.30;99.90;;;;;;8284792;28;20187;-67
2022/11/15 03:30:51;;;;;;;51.30;28.80;;;-1.30;99.90;;;;;;8283532;28;20186;-67
2022/11/15 03:35:00;;;;;;;54.43;31.50;;;-1.30;99.90;;;;;;8284318;28;20188;-67
2022/11/15 03:39:06;;;;;;;55.97;31.17;;;-1.20;99.90;;;;;;8282183;28;20211;-68
2022/11/15 03:43:24;;;;;;;52.70;28.20;;;-1.30;99.90;;;;;;8315020;28;20197;-67
2022/11/15 03:47:57;;;;;;;50.90;27.97;;;-1.30;99.90;;;;;;8282127;28;20191;-67
2022/11/15 03:52:00;;;;;;;57.53;29.57;;;-1.30;99.90;;;;;;8287894;28;20202;-66
2022/11/15 03:56:00;;;;;;;51.50;29.83;;;-1.30;99.90;;;;;;8279948;28;20186;-67
2022/11/15 04:00:04;;;;;;;60.47;30.90;;;-1.30;99.90;;;;;;8282145;28;20225;-67
2022/11/15 04:04:05;;;;;;;51.40;26.83;;;-1.30;99.90;;;;;;8312549;28;20185;-67
2022/11/15 04:08:05;;;;;;;43.97;26.30;;;-1.40;99.90;;;;;;8280039;28;20196;-67
2022/11/15 04:12:06;;;;;;;46.63;24.13;;;-1.40;99.90;;;;;;8277674;28;20197;-67
2022/11/15 04:16:07;;;;;;;44.20;25.83;;;-1.50;99.90;;;;;;8270385;28;20213;-66
2022/11/15 04:24:33;;;;;;;45.00;24.80;;;-1.50;99.90;;;;;;8283606;28;20272;-67
2022/11/15 04:28:34;;;;;;;41.00;22.80;;;-1.50;99.90;;;;;;8312483;28;20187;-67
2022/11/15 04:32:35;;;;;;;48.60;26.23;;;-1.50;99.90;;;;;;8281913;28;20193;-66
2022/11/15 04:40:55;;;;;;;50.47;28.37;;;-1.50;99.90;;;;;;8282281;28;20668;-67
2022/11/15 04:44:56;;;;;;;47.60;27.87;;;-1.50;99.90;;;;;;8311701;28;20189;-67
2022/11/15 04:48:57;;;;;;;45.60;25.73;;;-1.50;99.90;;;;;;8282131;28;20189;-66
2022/11/15 04:52:57;;;;;;;44.47;24.93;;;-1.50;99.90;;;;;;8282047;28;20271;-67
2022/11/15 04:56:58;;;;;;;41.20;23.27;;;-1.50;99.90;;;;;;8281331;28;20276;-67
2022/11/15 05:01:16;;;;;;;49.70;29.27;;;-1.60;99.90;;;;;;8312217;28;20240;-66
2022/11/15 05:05:17;;;;;;;46.80;27.57;;;-1.50;99.90;;;;;;8281580;28;20197;-66
2022/11/15 05:09:19;;;;;;;43.43;23.83;;;-1.50;99.90;;;;;;8309282;28;20184;-67
2022/11/15 05:13:20;;;;;;;42.10;24.33;;;-1.50;99.90;;;;;;8277691;28;20204;-67
2022/11/15 05:17:21;;;;;;;41.57;23.37;;;-1.60;99.90;;;;;;8278322;28;20206;-66
2022/11/15 05:21:22;;;;;;;45.17;25.83;;;-1.60;99.90;;;;;;8278305;28;20196;-68
2022/11/15 05:25:23;;;;;;;39.73;22.23;;;-1.60;99.90;;;;;;8278812;28;20208;-67
2022/11/15 05:29:24;;;;;;;42.87;26.90;;;-1.70;99.90;;;;;;8271041;28;20193;-67
2022/11/15 05:33:25;;;;;;;55.00;28.73;;;-1.60;99.90;;;;;;8314363;28;20219;-66
2022/11/15 05:37:25;;;;;;;42.90;24.90;;;-1.60;99.90;;;;;;8281565;28;20276;-67
2022/11/15 05:41:37;;;;;;;41.30;23.80;;;-1.60;99.90;;;;;;8317211;28;20192;-68
2022/11/15 05:45:38;;;;;;;44.87;23.47;;;-1.70;99.90;;;;;;8284993;28;20185;-67
2022/11/15 05:49:42;;;;;;;45.30;23.73;;;-1.70;99.90;;;;;;8285906;28;20194;-67
2022/11/15 05:53:44;;;;;;;41.93;22.80;;;-1.70;99.90;;;;;;8284400;28;20262;-66
2022/11/15 05:57:45;;;;;;;36.93;21.90;;;-1.80;99.90;;;;;;8284527;28;20210;-67
2022/11/15 06:01:45;;;;;;;55.93;31.40;;;-1.70;99.90;;;;;;8280006;28;20212;-68
2022/11/15 06:05:46;;;;;;;72.50;40.90;;;-1.60;99.90;;;;;;8284358;28;20307;-66
2022/11/15 06:09:47;;;;;;;68.53;40.87;;;-1.50;99.90;;;;;;8284684;28;20328;-67
2022/11/15 06:13:48;;;;;;;67.77;39.07;;;-1.50;99.90;;;;;;8313741;28;20270;-66
2022/11/15 06:17:49;;;;;;;61.73;34.97;;;-1.50;99.90;;;;;;8314493;28;20249;-67
2022/11/15 06:21:49;;;;;;;56.80;31.63;;;-1.50;99.90;;;;;;8285354;28;20187;-67
2022/11/15 06:25:50;;;;;;;49.83;28.10;;;-1.50;99.90;;;;;;8283715;28;20210;-67
2022/11/15 06:29:51;;;;;;;48.67;26.20;;;-1.50;99.90;;;;;;8286073;28;20194;-67
2022/11/15 06:33:52;;;;;;;51.90;31.57;;;-1.50;99.90;;;;;;8280841;28;20262;-68
2022/11/15 06:37:52;;;;;;;50.83;28.83;;;-1.50;99.90;;;;;;8284103;28;20199;-67
2022/11/15 06:41:53;;;;;;;50.43;27.43;;;-1.40;99.90;;;;;;8317316;28;20208;-68
2022/11/15 06:45:54;;;;;;;59.27;30.63;;;-1.40;99.90;;;;;;8284844;28;20197;-67
2022/11/15 06:49:55;;;;;;;53.53;30.97;;;-1.30;99.90;;;;;;8283413;28;20189;-67
2022/11/15 06:53:55;;;;;;;52.03;30.50;;;-1.30;99.90;;;;;;8283902;28;20217;-67
2022/11/15 06:57:56;;;;;;;61.07;34.47;;;-1.20;99.90;;;;;;8282241;28;20292;-67
2022/11/15 07:01:57;;;;;;;60.07;35.20;;;-1.00;99.90;;;;;;8314359;28;20761;-67
2022/11/15 07:05:58;;;;;;;58.07;34.97;;;-0.90;99.90;;;;;;8283234;28;20182;-66
2022/11/15 07:09:59;;;;;;;80.43;44.73;;;-0.80;99.90;;;;;;8285040;28;20285;-68
2022/11/15 07:14:01;;;;;;;71.97;41.67;;;-0.70;99.90;;;;;;8285190;28;20179;-67
2022/11/15 07:18:02;;;;;;;79.83;45.70;;;-0.50;99.90;;;;;;8283325;28;20211;-66
2022/11/15 07:22:03;;;;;;;60.47;35.97;;;-0.40;99.90;;;;;;8284257;28;20189;-67
2022/11/15 07:26:04;;;;;;;62.53;36.93;;;-0.40;99.90;;;;;;8284550;28;20198;-68
2022/11/15 07:30:05;;;;;;;64.83;36.53;;;-0.20;99.90;;;;;;8283991;28;20191;-67
2022/11/15 07:34:06;;;;;;;53.77;30.53;;;-0.10;99.90;;;;;;8282574;28;20483;-67
2022/11/15 07:38:07;;;;;;;61.60;34.00;;;-0.10;99.90;;;;;;8282344;28;20221;-67
2022/11/15 07:46:26;;;;;;;100.03;57.73;;;0.20;99.90;;;;;;8284038;28;20230;-68
2022/11/15 07:50:31;;;;;;;114.77;67.43;;;0.50;99.90;;;;;;8316597;28;20214;-69
2022/11/15 07:54:31;;;;;;;162.53;88.20;;;0.80;99.90;;;;;;8313855;28;20197;-70
2022/11/15 07:58:32;;;;;;;145.00;81.30;;;1.00;99.90;;;;;;8282575;28;20238;-70
2022/11/15 08:02:33;;;;;;;132.87;73.57;;;1.20;99.90;;;;;;8280880;28;20314;-70
2022/11/15 08:06:34;;;;;;;128.50;73.77;;;1.50;99.90;;;;;;8282419;28;20210;-70
2022/11/15 08:10:35;;;;;;;113.60;67.27;;;1.70;99.90;;;;;;8287946;28;20191;-69
2022/11/15 08:14:36;;;;;;;102.13;61.00;;;2.00;99.90;;;;;;8286974;28;20180;-71
2022/11/15 08:18:37;;;;;;;145.50;86.73;;;2.20;99.90;;;;;;8287239;28;20238;-71
2022/11/15 08:22:37;;;;;;;189.63;115.63;;;2.10;99.90;;;;;;8283730;28;20188;-70
2022/11/15 08:26:39;;;;;;;182.83;111.20;;;2.30;99.90;;;;;;8284978;28;20212;-70
2022/11/15 08:30:42;;;;;;;188.30;115.50;;;2.60;99.90;;;;;;8286214;28;20262;-69
2022/11/15 08:34:43;;;;;;;165.87;104.13;;;2.80;99.90;;;;;;8286153;28;20187;-70
2022/11/15 08:38:44;;;;;;;171.47;107.60;;;3.00;99.90;;;;;;8282931;28;20206;-69
2022/11/15 08:42:48;;;;;;;131.87;84.33;;;3.20;99.90;;;;;;8282578;28;20270;-69
2022/11/15 08:46:49;;;;;;;114.60;69.83;;;3.30;99.90;;;;;;8281495;28;20182;-69
2022/11/15 08:50:55;;;;;;;118.13;72.33;;;3.60;99.90;;;;;;8281175;28;20183;-69
2022/11/15 08:54:56;;;;;;;99.63;62.00;;;3.80;99.90;;;;;;8280225;28;20179;-70
2022/11/15 08:58:57;;;;;;;93.37;58.57;;;3.90;99.90;;;;;;8280483;28;20199;-69
2022/11/15 09:02:57;;;;;;;95.13;55.67;;;4.20;99.90;;;;;;8281873;28;20242;-70
2022/11/15 09:06:58;;;;;;;82.50;49.73;;;4.40;99.90;;;;;;8283543;28;20183;-69
2022/11/15 09:11:03;;;;;;;75.53;49.00;;;4.70;99.90;;;;;;8319946;28;20179;-69
2022/11/15 09:15:06;;;;;;;70.33;44.03;;;4.90;99.90;;;;;;8288280;28;20199;-68
2022/11/15 09:19:07;;;;;;;64.40;41.87;;;5.20;99.90;;;;;;8301967;28;20204;-69
2022/11/15 09:23:07;;;;;;;69.73;43.33;;;5.50;99.90;;;;;;8289766;28;20188;-69
2022/11/15 09:27:08;;;;;;;69.10;44.40;;;5.80;99.90;;;;;;8285531;28;20262;-70
2022/11/15 09:31:09;;;;;;;84.70;52.07;;;6.10;99.90;;;;;;8288094;28;20227;-69
2022/11/15 09:35:10;;;;;;;132.93;78.57;;;6.40;99.90;;;;;;8301635;28;20192;-69
2022/11/15 09:39:11;;;;;;;111.60;64.83;;;6.60;99.90;;;;;;8286379;28;20501;-69
2022/11/15 09:43:25;;;;;;;65.70;44.00;;;6.80;99.90;;;;;;8288825;28;20187;-70
2022/11/15 09:47:36;;;;;;;61.83;39.00;;;7.10;99.90;;;;;;8287593;28;20267;-70
2022/11/15 09:51:46;;;;;;;62.30;41.73;;;7.40;99.90;;;;;;8318996;28;20179;-69
2022/11/15 09:56:02;;;;;;;70.00;44.93;;;7.80;99.90;;;;;;8286915;28;20198;-68
2022/11/15 10:00:13;;;;;;;70.37;47.40;;;8.20;99.90;;;;;;8285149;28;20212;-69
2022/11/15 10:04:14;;;;;;;62.97;41.77;;;8.50;99.90;;;;;;8285734;28;20210;-69
2022/11/15 10:08:46;;;;;;;61.00;40.97;;;8.80;99.90;;;;;;8283633;28;20214;-69
2022/11/15 10:12:50;;;;;;;63.40;43.63;;;9.00;99.90;;;;;;8301795;28;20224;-68
2022/11/15 10:17:09;;;;;;;60.50;37.43;;;9.30;99.90;;;;;;8285793;28;20290;-69
2022/11/15 10:21:20;;;;;;;54.30;38.70;;;9.50;99.90;;;;;;8318442;28;20286;-68
2022/11/15 10:25:23;;;;;;;55.30;35.63;;;9.70;99.90;;;;;;8284289;28;20209;-68
2022/11/15 10:29:25;;;;;;;41.60;29.63;;;10.00;99.90;;;;;;8286045;28;20280;-70
2022/11/15 10:33:35;;;;;;;45.17;30.77;;;10.20;99.90;;;;;;8285317;28;20195;-69
2022/11/15 10:37:36;;;;;;;33.50;24.37;;;10.40;99.90;;;;;;8285802;28;20204;-68
2022/11/15 10:41:39;;;;;;;25.47;19.97;;;10.60;99.90;;;;;;8283340;28;20213;-69
2022/11/15 10:45:40;;;;;;;29.73;18.50;;;10.90;99.90;;;;;;8285426;28;20179;-69
2022/11/15 10:49:55;;;;;;;23.90;17.97;;;11.10;99.90;;;;;;8284120;28;20194;-69
2022/11/15 10:54:00;;;;;;;28.70;21.93;;;11.40;99.90;;;;;;8286416;28;20186;-69
2022/11/15 10:58:29;;;;;;;23.50;17.83;;;11.60;99.90;;;;;;8315828;28;20242;-69
2022/11/15 11:02:47;;;;;;;24.90;18.27;;;11.80;99.90;;;;;;8289867;28;20191;-69
2022/11/15 11:06:56;;;;;;;23.80;15.33;;;12.00;99.90;;;;;;8284251;28;20175;-69
2022/11/15 11:10:59;;;;;;;17.23;12.50;;;12.20;1.00;;;;;;8282854;28;20192;-69
2022/11/15 11:15:09;;;;;;;16.23;10.27;;;12.40;1.00;;;;;;8282868;28;20183;-69
2022/11/15 11:19:35;;;;;;;15.37;10.43;;;12.50;1.00;;;;;;8283569;28;20199;-69
2022/11/15 11:23:45;;;;;;;13.27;9.70;;;12.60;99.90;;;;;;8298808;28;20187;-69
2022/11/15 11:28:16;;;;;;;11.93;9.33;;;12.70;99.90;;;;;;8313983;28;20219;-68
2022/11/15 11:32:30;;;;;;;11.93;9.27;;;12.80;99.90;;;;;;8312241;28;20519;-69
2022/11/15 11:36:40;;;;;;;13.73;8.60;;;12.90;99.90;;;;;;8314684;28;20187;-69
2022/11/15 11:40:56;;;;;;;13.10;9.10;;;12.90;99.90;;;;;;8316030;28;20830;-69
2022/11/15 11:45:03;;;;;;;12.23;9.87;;;13.00;99.90;;;;;;8282423;28;20396;-69
2022/11/15 11:49:21;;;;;;;14.30;9.37;;;13.10;99.90;;;;;;8283399;28;20301;-69
2022/11/15 11:53:52;;;;;;;13.03;9.37;;;13.10;99.90;;;;;;8280254;28;20189;-73
2022/11/15 11:58:16;;;;;;;11.67;8.63;;;13.20;99.90;;;;;;8297486;28;20219;-74
2022/11/15 12:02:26;;;;;;;11.07;8.93;;;13.30;99.90;;;;;;8284138;28;20191;-73
2022/11/15 12:06:30;;;;;;;11.17;8.03;;;13.30;99.90;;;;;;8283658;28;20238;-73
2022/11/15 12:10:34;;;;;;;12.47;8.87;;;13.40;99.90;;;;;;8302930;28;20183;-73
2022/11/15 12:14:56;;;;;;;14.03;9.27;;;13.50;99.90;;;;;;8299486;28;20192;-74
2022/11/15 12:19:02;;;;;;;12.20;8.53;;;13.50;99.90;;;;;;8285640;28;20234;-74
2022/11/15 12:23:11;;;;;;;14.43;10.13;;;13.60;99.90;;;;;;8312608;28;20186;-72
2022/11/15 12:27:33;;;;;;;13.43;9.87;;;13.60;99.90;;;;;;8314675;28;20180;-74
2022/11/15 12:31:34;;;;;;;11.70;8.97;;;13.60;99.90;;;;;;8311953;28;20271;-74
2022/11/15 12:35:42;;;;;;;12.13;8.83;;;13.60;99.90;;;;;;8283354;28;20199;-74
2022/11/15 12:40:20;;;;;;;10.93;8.67;;;13.60;99.90;;;;;;8283213;28;21557;-74
2022/11/15 12:44:46;;;;;;;12.63;8.50;;;13.70;99.90;;;;;;8283723;28;20183;-73
2022/11/15 12:48:51;;;;;;;11.27;8.93;;;13.70;99.90;;;;;;8300477;28;20199;-73
2022/11/15 12:53:23;;;;;;;9.20;7.67;;;13.70;99.90;;;;;;8279509;28;20185;-74
2022/11/15 12:57:41;;;;;;;12.27;8.63;;;13.80;99.90;;;;;;8315516;28;20206;-74
2022/11/15 13:01:41;;;;;;;14.13;9.73;;;13.80;99.90;;;;;;8281050;28;20245;-73
2022/11/15 13:05:42;;;;;;;11.07;8.13;;;13.80;99.90;;;;;;8282020;28;20183;-73
2022/11/15 13:09:43;;;;;;;9.40;7.50;;;13.80;99.90;;;;;;8286202;28;20183;-74
2022/11/15 13:13:45;;;;;;;11.20;7.53;;;13.80;99.90;;;;;;8283493;28;20187;-74
2022/11/15 13:17:53;;;;;;;10.90;7.43;;;13.80;99.90;;;;;;8313438;28;20203;-74
2022/11/15 13:26:17;;;;;;;8.27;6.60;;;13.80;99.90;;;;;;8283614;28;20291;-74
2022/11/15 13:30:28;;;;;;;8.43;6.03;;;13.90;99.90;;;;;;8313304;28;20198;-73
2022/11/15 13:34:34;;;;;;;8.77;6.53;;;13.90;99.90;;;;;;8299741;28;20187;-74
2022/11/15 13:38:38;;;;;;;6.73;5.80;;;13.90;99.90;;;;;;8279741;28;20243;-73
2022/11/15 13:42:39;;;;;;;6.77;5.83;;;13.80;1.00;;;;;;8284723;28;20195;-71
2022/11/15 13:46:40;;;;;;;6.90;5.83;;;13.60;1.00;;;;;;8315143;28;20187;-73
2022/11/15 13:50:41;;;;;;;9.03;5.90;;;13.50;1.00;;;;;;8282512;28;20190;-72
2022/11/15 13:54:52;;;;;;;9.20;6.90;;;13.40;1.00;;;;;;8316921;28;20194;-73
2022/11/15 13:58:54;;;;;;;7.47;5.87;;;13.20;90.40;;;;;;8284740;28;20219;-73
2022/11/15 14:02:57;;;;;;;10.27;6.87;;;13.10;99.90;;;;;;8285046;28;20380;-73
2022/11/15 14:06:59;;;;;;;8.20;6.30;;;12.90;99.90;;;;;;8284152;28;20183;-73
2022/11/15 14:11:11;;;;;;;7.47;5.53;;;12.70;99.90;;;;;;8284666;28;20271;-73
2022/11/15 14:15:30;;;;;;;7.10;5.33;;;12.40;1.00;;;;;;8300175;28;20191;-72
2022/11/15 14:19:31;;;;;;;6.17;5.27;;;12.10;1.00;;;;;;8315956;28;20218;-73
2022/11/15 14:23:32;;;;;;;6.80;5.10;;;11.90;1.00;;;;;;8317678;28;20203;-73
2022/11/15 14:27:33;;;;;;;7.27;5.53;;;11.70;25.30;;;;;;8284757;28;20187;-72
2022/11/15 14:31:34;;;;;;;7.57;5.37;;;11.50;99.90;;;;;;8285475;28;20308;-73
2022/11/15 14:35:38;;;;;;;7.33;5.00;;;11.30;99.90;;;;;;8285634;28;20460;-72
2022/11/15 14:39:39;;;;;;;7.33;5.50;;;11.00;99.90;;;;;;8285296;28;20214;-73
2022/11/15 14:43:40;;;;;;;5.77;4.90;;;10.80;1.00;;;;;;8313776;28;20187;-73
2022/11/15 14:47:42;;;;;;;5.30;4.37;;;10.50;1.00;;;;;;8282537;28;20219;-72
2022/11/15 14:51:42;;;;;;;7.13;5.10;;;10.30;99.90;;;;;;8282514;28;20618;-72
2022/11/15 14:55:44;;;;;;;7.07;4.97;;;10.00;99.90;;;;;;8284239;28;20197;-72
2022/11/15 14:59:45;;;;;;;6.77;5.07;;;9.80;1.00;;;;;;8280177;28;20206;-72
2022/11/15 15:03:45;;;;;;;6.87;4.73;;;9.50;99.90;;;;;;8282054;28;20194;-72
2022/11/15 15:07:47;;;;;;;10.07;5.80;;;9.30;1.00;;;;;;8278889;28;20189;-73
2022/11/15 15:11:48;;;;;;;8.07;5.17;;;9.00;99.90;;;;;;8280332;28;20272;-72
2022/11/15 15:15:50;;;;;;;10.07;6.00;;;8.80;1.00;;;;;;8280593;28;20201;-72
2022/11/15 15:19:51;;;;;;;9.40;6.50;;;8.50;99.90;;;;;;8280116;28;20259;-72
2022/11/15 15:23:55;;;;;;;9.27;6.53;;;8.30;1.00;;;;;;8281450;28;20179;-72
2022/11/15 15:27:56;;;;;;;7.37;5.57;;;8.20;99.90;;;;;;8279955;28;20187;-71
2022/11/15 15:31:57;;;;;;;8.93;5.73;;;8.00;99.90;;;;;;8277451;28;20246;-71
2022/11/15 15:35:59;;;;;;;7.40;6.20;;;7.80;1.00;;;;;;8284147;28;20191;-71
2022/11/15 15:39:59;;;;;;;9.77;5.87;;;7.60;99.90;;;;;;8282601;28;20211;-71
2022/11/15 15:44:00;;;;;;;6.20;4.90;;;7.50;93.00;;;;;;8313641;28;20215;-71
2022/11/15 15:48:01;;;;;;;7.20;5.10;;;7.30;1.00;;;;;;8277760;28;20190;-71
2022/11/15 15:52:02;;;;;;;9.13;5.57;;;7.10;99.90;;;;;;8308692;28;20195;-71
2022/11/15 15:56:03;;;;;;;8.50;6.00;;;7.00;1.00;;;;;;8278094;28;20261;-71
2022/11/15 16:00:05;;;;;;;8.30;6.43;;;6.80;99.90;;;;;;8275702;28;20260;-71
2022/11/15 16:04:06;;;;;;;9.83;7.40;;;6.70;99.90;;;;;;8280163;28;20192;-71
2022/11/15 16:08:19;;;;;;;11.00;6.70;;;6.60;1.00;;;;;;8280620;28;20302;-71
2022/11/15 16:12:20;;;;;;;10.80;7.00;;;6.40;1.00;;;;;;8282783;28;20569;-71
2022/11/15 16:16:21;;;;;;;13.50;8.03;;;6.40;1.00;;;;;;8277239;28;20592;-70
2022/11/15 16:20:35;;;;;;;9.93;7.67;;;6.30;99.90;;;;;;8278756;28;20206;-71
2022/11/15 16:24:36;;;;;;;9.93;7.53;;;6.20;99.90;;;;;;8279042;28;20266;-71
2022/11/15 16:28:37;;;;;;;8.50;6.90;;;6.10;99.90;;;;;;8279874;28;20195;-70
2022/11/15 16:32:38;;;;;;;13.37;9.73;;;6.00;99.90;;;;;;8280301;28;20649;-70
2022/11/15 16:36:39;;;;;;;14.80;10.73;;;5.90;99.90;;;;;;8280414;28;20191;-70
2022/11/15 16:40:40;;;;;;;13.10;10.30;;;5.80;99.90;;;;;;8279881;28;20210;-70
2022/11/15 16:44:40;;;;;;;12.90;9.53;;;5.70;99.90;;;;;;8280992;28;20186;-70
2022/11/15 16:48:41;;;;;;;11.90;8.50;;;5.60;99.90;;;;;;8280951;28;20194;-72
2022/11/15 16:52:42;;;;;;;13.33;9.37;;;5.50;99.90;;;;;;8281177;28;20424;-70
2022/11/15 16:56:43;;;;;;;12.53;9.27;;;5.30;99.90;;;;;;8312618;28;20235;-71
2022/11/15 17:00:44;;;;;;;15.00;9.53;;;5.20;99.90;;;;;;8276745;28;20216;-70
2022/11/15 17:04:46;;;;;;;11.77;8.67;;;5.10;99.90;;;;;;8276828;28;20210;-71
2022/11/15 17:08:47;;;;;;;12.93;9.33;;;5.00;99.90;;;;;;8276429;28;20193;-71
2022/11/15 17:12:49;;;;;;;13.53;11.07;;;4.90;99.90;;;;;;8307028;28;20203;-70
2022/11/15 17:16:49;;;;;;;18.53;12.53;;;4.80;99.90;;;;;;8278183;28;20222;-70
2022/11/15 17:20:50;;;;;;;21.03;14.30;;;4.80;99.90;;;;;;8311770;28;20207;-70
2022/11/15 17:24:51;;;;;;;27.60;17.27;;;4.70;99.90;;;;;;8276969;28;20195;-70
2022/11/15 17:29:00;;;;;;;20.57;14.30;;;4.70;99.90;;;;;;8281865;28;20219;-70
2022/11/15 17:33:01;;;;;;;21.00;14.53;;;4.60;99.90;;;;;;8284873;28;20302;-69
2022/11/15 17:37:01;;;;;;;17.97;12.90;;;4.50;99.90;;;;;;8318392;28;20186;-70
2022/11/15 17:41:14;;;;;;;16.83;12.50;;;4.40;99.90;;;;;;8284222;28;20207;-71
2022/11/15 17:45:15;;;;;;;16.53;11.60;;;4.20;99.90;;;;;;8284395;28;20250;-70
2022/11/15 17:49:18;;;;;;;12.23;9.77;;;4.10;99.90;;;;;;8316479;28;20195;-70
2022/11/15 17:53:19;;;;;;;10.63;8.03;;;4.00;99.90;;;;;;8316009;28;20217;-71
2022/11/15 17:57:20;;;;;;;11.50;8.43;;;3.90;99.90;;;;;;8284719;28;20215;-71
2022/11/15 18:01:22;;;;;;;11.30;8.13;;;3.80;99.90;;;;;;8314705;28;20244;-70
2022/11/15 18:05:23;;;;;;;10.97;8.17;;;3.80;99.90;;;;;;8312104;28;20214;-71
2022/11/15 18:09:25;;;;;;;9.93;7.57;;;3.80;99.90;;;;;;8281751;28;20187;-71
2022/11/15 18:13:26;;;;;;;10.60;8.20;;;3.70;99.90;;;;;;8285257;28;20194;-69
2022/11/15 18:17:27;;;;;;;8.77;6.87;;;3.60;99.90;;;;;;8296807;28;20441;-69
2022/11/15 18:21:29;;;;;;;10.17;7.43;;;3.60;99.90;;;;;;8284618;28;20703;-69
2022/11/15 18:25:30;;;;;;;11.70;8.27;;;3.50;99.90;;;;;;8284186;28;20175;-69
2022/11/15 18:29:33;;;;;;;10.90;8.10;;;3.50;99.90;;;;;;8279261;28;20183;-69
2022/11/15 18:33:34;;;;;;;10.37;7.90;;;3.50;99.90;;;;;;8283709;28;20253;-70
2022/11/15 18:37:35;;;;;;;11.60;7.97;;;3.50;99.90;;;;;;8284190;28;20324;-69
2022/11/15 18:41:35;;;;;;;13.23;9.07;;;3.40;99.90;;;;;;8280588;28;20218;-69
2022/11/15 18:45:36;;;;;;;11.83;9.37;;;3.40;99.90;;;;;;8282675;28;20199;-69
2022/11/15 18:49:37;;;;;;;14.07;10.33;;;3.30;99.90;;;;;;8282406;28;20520;-69
2022/11/15 18:53:39;;;;;;;17.60;13.43;;;3.30;99.90;;;;;;8283831;28;20185;-69
2022/11/15 18:57:40;;;;;;;55.90;32.23;;;3.40;99.90;;;;;;8281067;28;20207;-69
2022/11/15 19:01:48;;;;;;;25.43;15.83;;;3.40;99.90;;;;;;8281117;28;20257;-69
2022/11/15 19:05:49;;;;;;;45.27;20.90;;;3.20;99.90;;;;;;8280604;28;20179;-69
2022/11/15 19:09:50;;;;;;;15.83;10.57;;;3.20;99.90;;;;;;8282182;28;20190;-69
2022/11/15 19:13:55;;;;;;;16.07;10.67;;;2.80;99.90;;;;;;8315388;28;20193;-70
2022/11/15 19:17:56;;;;;;;20.87;12.47;;;2.60;99.90;;;;;;8281794;28;20204;-69
2022/11/15 19:21:58;;;;;;;25.73;14.80;;;2.60;99.90;;;;;;8279935;28;20187;-69
2022/11/15 19:26:00;;;;;;;26.17;15.10;;;2.50;99.90;;;;;;8280876;28;20260;-69
2022/11/15 19:30:01;;;;;;;35.30;17.63;;;2.50;99.90;;;;;;8280946;28;20314;-69
2022/11/15 19:34:03;;;;;;;29.70;15.20;;;2.40;99.90;;;;;;8281753;28;20215;-69
2022/11/15 19:38:04;;;;;;;23.67;13.73;;;2.40;99.90;;;;;;8283026;28;20183;-69
2022/11/15 19:42:05;;;;;;;31.90;17.50;;;2.30;99.90;;;;;;8279772;28;20179;-69
2022/11/15 19:46:09;;;;;;;29.60;16.63;;;2.30;99.90;;;;;;8281061;28;20186;-69
2022/11/15 19:50:10;;;;;;;25.77;16.37;;;2.30;99.90;;;;;;8276670;28;20197;-70
2022/11/15 19:54:12;;;;;;;55.60;27.87;;;2.30;99.90;;;;;;8282203;28;20191;-69
2022/11/15 19:58:13;;;;;;;86.27;38.40;;;2.30;99.90;;;;;;8312982;28;20212;-69
2022/11/15 20:02:13;;;;;;;88.53;39.20;;;2.30;99.90;;;;;;8280771;28;20191;-69
2022/11/15 20:06:22;;;;;;;75.93;36.27;;;2.30;99.90;;;;;;8297738;28;20278;-69
2022/11/15 20:10:23;;;;;;;42.43;22.63;;;2.20;99.90;;;;;;8277578;28;20191;-67
2022/11/15 20:14:24;;;;;;;32.40;19.40;;;2.10;99.90;;;;;;8310713;28;20250;-68
2022/11/15 20:18:27;;;;;;;32.30;19.33;;;2.00;99.90;;;;;;8278994;28;20261;-68
2022/11/15 20:22:27;;;;;;;101.37;63.07;;;1.90;99.90;;;;;;8295598;28;20180;-68
2022/11/15 20:26:31;;;;;;;37.60;23.47;;;1.70;99.90;;;;;;8296299;28;20210;-70
2022/11/15 20:30:32;;;;;;;31.70;19.73;;;1.50;99.90;;;;;;8280593;28;20237;-69
2022/11/15 20:34:33;;;;;;;31.87;19.33;;;1.60;99.90;;;;;;8282266;28;20194;-69
2022/11/15 20:38:34;;;;;;;32.17;19.60;;;1.60;99.90;;;;;;8282818;28;20306;-69
2022/11/15 20:42:35;;;;;;;32.93;21.37;;;1.60;99.90;;;;;;8285395;28;20191;-69
2022/11/15 20:46:36;;;;;;;35.27;21.80;;;1.70;99.90;;;;;;8282017;28;20209;-69
2022/11/15 20:50:37;;;;;;;37.70;22.80;;;1.70;99.90;;;;;;8314707;28;20529;-69
2022/11/15 20:54:37;;;;;;;36.30;22.37;;;1.80;99.90;;;;;;8284230;28;20195;-69
2022/11/15 20:58:38;;;;;;;38.87;22.00;;;1.80;99.90;;;;;;8282050;28;20222;-69
2022/11/15 21:02:39;;;;;;;36.73;22.17;;;1.80;99.90;;;;;;8280434;28;20195;-69
2022/11/15 21:06:40;;;;;;;35.80;21.20;;;1.80;99.90;;;;;;8289170;28;20179;-69
2022/11/15 21:15:00;;;;;;;34.87;21.87;;;1.90;99.90;;;;;;8283201;28;20198;-69